createdAt,value
2022-12-16T00:08:50.283Z,14.73
2022-12-16T00:18:53.410Z,14.72
2022-12-16T00:28:54.983Z,14.75
2022-12-16T00:38:56.453Z,14.75
2022-12-16T00:48:57.892Z,14.76
2022-12-16T00:58:59.416Z,14.74
2022-12-16T01:09:00.847Z,14.72
2022-12-16T01:19:02.633Z,14.72
2022-12-16T01:29:04.040Z,14.69
2022-12-16T01:39:05.562Z,14.71
2022-12-16T01:49:10.256Z,14.70
2022-12-16T01:59:12.384Z,14.68
2022-12-16T02:09:14.030Z,14.69
2022-12-16T02:19:37.345Z,14.70
2022-12-16T02:30:06.586Z,14.69
2022-12-16T02:40:16.357Z,14.69
2022-12-16T02:50:21.010Z,14.66
2022-12-16T03:00:24.590Z,14.69
2022-12-16T03:10:29.245Z,14.72
2022-12-16T03:20:34.941Z,14.69
2022-12-16T03:30:36.728Z,14.74
2022-12-16T03:40:38.561Z,14.75
2022-12-16T03:50:40.008Z,14.73
2022-12-16T04:00:41.427Z,14.75
2022-12-16T04:11:01.250Z,14.75
2022-12-16T04:21:20.976Z,14.77
2022-12-16T04:31:22.521Z,14.76
2022-12-16T04:41:43.721Z,14.74
2022-12-16T04:52:03.910Z,14.73
2022-12-16T05:02:23.763Z,14.73
2022-12-16T05:12:43.988Z,14.71
2022-12-16T05:23:03.825Z,14.80
2022-12-16T05:33:23.491Z,14.81
2022-12-16T05:43:43.196Z,14.85
2022-12-16T05:54:10.739Z,14.87
2022-12-16T06:04:30.443Z,14.88
2022-12-16T06:14:50.186Z,14.93
2022-12-16T06:25:10.182Z,14.96
2022-12-16T06:35:30.098Z,14.96
2022-12-16T06:45:49.884Z,14.98
2022-12-16T06:56:10.095Z,15.02
2022-12-16T07:06:30.049Z,15.01
2022-12-16T07:16:49.866Z,15.00
2022-12-16T07:27:09.972Z,15.02
2022-12-16T07:37:43.713Z,15.05
2022-12-16T07:48:09.646Z,15.06
2022-12-16T07:58:29.487Z,15.13
2022-12-16T08:08:49.482Z,15.15
2022-12-16T08:19:11.375Z,15.38
2022-12-16T08:29:47.136Z,15.67
2022-12-16T08:50:47.101Z,16.25
2022-12-16T09:01:08.134Z,16.52
2022-12-16T09:11:30.009Z,16.79
2022-12-16T09:21:50.117Z,16.96
2022-12-16T09:32:10.204Z,17.07
2022-12-16T09:42:55.514Z,17.14
2022-12-16T09:53:18.441Z,17.15
2022-12-16T10:03:42.871Z,17.17
2022-12-16T10:14:19.430Z,17.15
2022-12-16T10:24:39.676Z,17.15
2022-12-16T10:34:59.356Z,17.10
2022-12-16T10:45:20.226Z,17.01
2022-12-16T10:55:52.464Z,16.94
2022-12-16T11:06:13.115Z,16.83
2022-12-16T11:16:41.181Z,16.76
2022-12-16T11:27:11.367Z,16.67
2022-12-16T11:37:38.337Z,16.62
2022-12-16T11:48:03.166Z,16.57
2022-12-16T11:59:00.947Z,16.52
2022-12-16T12:09:40.403Z,16.49
2022-12-16T12:20:15.079Z,16.49
2022-12-16T12:30:37.321Z,16.48
2022-12-16T12:40:59.752Z,16.47
2022-12-16T12:51:33.488Z,16.45
2022-12-16T13:01:53.255Z,16.42
2022-12-16T13:12:25.521Z,16.43
2022-12-16T13:22:53.096Z,16.26
2022-12-16T13:33:14.277Z,16.06
2022-12-16T13:44:00.540Z,15.89
2022-12-16T13:54:20.619Z,15.72
2022-12-16T14:04:44.745Z,15.54
2022-12-16T14:15:11.230Z,15.33
2022-12-16T14:25:33.064Z,15.18
2022-12-16T14:36:12.640Z,14.99
2022-12-16T14:46:49.301Z,14.82
2022-12-16T14:57:29.126Z,14.66
2022-12-16T15:07:52.295Z,14.55
2022-12-16T15:18:15.444Z,14.37
2022-12-16T15:28:43.781Z,14.25
2022-12-16T15:39:03.631Z,14.13
2022-12-16T15:49:23.652Z,14.02
2022-12-16T16:00:11.684Z,13.85
2022-12-16T16:10:39.832Z,13.83
2022-12-16T16:21:00.081Z,13.89
2022-12-16T16:31:20.445Z,14.14
2022-12-16T16:41:40.635Z,14.33
2022-12-16T16:52:00.271Z,14.45
2022-12-16T17:02:20.663Z,14.58
2022-12-16T17:12:46.091Z,14.65
2022-12-16T17:23:06.047Z,14.72
2022-12-16T17:33:25.808Z,14.79
2022-12-16T17:43:45.588Z,14.87
2022-12-16T17:54:14.579Z,14.92
2022-12-16T18:04:37.441Z,14.95
2022-12-16T18:14:57.233Z,15.01
2022-12-16T18:25:17.252Z,15.00
2022-12-16T18:35:36.980Z,15.02
2022-12-16T18:46:13.731Z,15.05
2022-12-16T18:56:33.516Z,15.06
2022-12-16T19:06:53.307Z,15.05
2022-12-16T19:17:13.345Z,14.94
2022-12-16T19:27:33.151Z,14.75
2022-12-16T19:37:53.769Z,14.60
2022-12-16T19:48:24.129Z,14.42
2022-12-16T19:58:44.131Z,14.25
2022-12-16T20:09:04.076Z,14.08
2022-12-16T20:19:23.870Z,13.96
2022-12-16T20:29:44.025Z,13.87
2022-12-16T20:40:03.795Z,13.75
2022-12-16T20:50:24.172Z,13.89
2022-12-16T21:00:44.112Z,14.03
2022-12-16T21:11:04.217Z,14.19
2022-12-16T21:21:24.563Z,14.30
2022-12-16T21:31:44.464Z,14.33
2022-12-16T21:42:20.952Z,14.44
2022-12-16T21:52:40.747Z,14.50
2022-12-16T22:03:03.212Z,14.56
2022-12-16T22:13:23.294Z,14.65
2022-12-16T22:23:49.122Z,14.66
2022-12-16T22:34:09.295Z,14.66
2022-12-16T22:44:29.434Z,14.67
2022-12-16T22:54:49.691Z,14.72
2022-12-16T23:05:09.610Z,14.70
2022-12-16T23:15:30.458Z,14.71
2022-12-16T23:25:50.345Z,14.72
2022-12-16T23:36:09.954Z,14.74
2022-12-16T23:46:30.034Z,14.75
2022-12-16T23:56:50.556Z,14.75
